KLM635 EHAM-KLAS
Flight info
| Callsign | KLM635 |
|---|---|
| Flight time | N/A |
| Altitude | 34000 |
| Route | BERGI L602 NALAX L46 GETNO DCT NIBOG DCT PIKIL/M083F340 DCT 57N020W 59N030W 59N040W 59N050W/M083F360 DCT SAVRY/N0482F360 DCT 58N070W/N0490F380 56N080W 55N085W 54N090W DCT KALLU DCT MOT/N0474F400 DCT SWTHN DCT FFU DCT MLF DCT STEWW CHOWW4 |
| Aircraft | B772/H-SDE2E3FGHIJ5LORVWXY/LB1D1 |
Departure
| Time | N/A |
|---|---|
| Airport | Amsterdam Airport Schiphol (EHAM) |
Arrival
| Time | 2026-05-03 22:25 |
|---|---|
| Airport | Harry Reid International Airport (KLAS) |
| Time | Latitude | Longitude | Altitude | Speed | Heading |
|---|---|---|---|---|---|
| 2026-05-03 20:15 | 48.23006 | -101.34715 | 39721 ft | 483 kts | 240° |
| 2026-05-03 20:15 | 48.19099 | -101.42906 | 39717 ft | 483 kts | 240° |
| 2026-05-03 20:16 | 48.15185 | -101.51098 | 39732 ft | 483 kts | 240° |
| 2026-05-03 20:16 | 48.11246 | -101.59259 | 39749 ft | 484 kts | 239° |
| 2026-05-03 20:17 | 48.07285 | -101.67407 | 39762 ft | 484 kts | 239° |
| 2026-05-03 20:17 | 48.03320 | -101.75537 | 39775 ft | 484 kts | 239° |
| 2026-05-03 20:18 | 47.99345 | -101.83661 | 39780 ft | 484 kts | 239° |
| 2026-05-03 20:18 | 47.95392 | -101.91719 | 39780 ft | 484 kts | 239° |
| 2026-05-03 20:19 | 47.91405 | -101.99824 | 39779 ft | 484 kts | 239° |
| 2026-05-03 20:19 | 47.87413 | -102.07917 | 39783 ft | 484 kts | 239° |
| 2026-05-03 20:20 | 47.83416 | -102.15997 | 39780 ft | 484 kts | 239° |
| 2026-05-03 20:20 | 47.79436 | -102.24017 | 39788 ft | 485 kts | 239° |
| 2026-05-03 20:21 | 47.75427 | -102.32070 | 39782 ft | 485 kts | 239° |
| 2026-05-03 20:21 | 47.71402 | -102.40131 | 39786 ft | 485 kts | 239° |
| 2026-05-03 20:22 | 47.67379 | -102.48167 | 39788 ft | 485 kts | 239° |
| 2026-05-03 20:22 | 47.63338 | -102.56215 | 39802 ft | 486 kts | 239° |
| 2026-05-03 20:23 | 47.59293 | -102.64247 | 39799 ft | 487 kts | 239° |
| 2026-05-03 20:23 | 47.55237 | -102.72277 | 39806 ft | 487 kts | 238° |
| 2026-05-03 20:24 | 47.51195 | -102.80257 | 39809 ft | 488 kts | 238° |
| 2026-05-03 20:24 | 47.47120 | -102.88277 | 39813 ft | 488 kts | 238° |
| 2026-05-03 20:25 | 47.43033 | -102.96296 | 39820 ft | 488 kts | 238° |
| 2026-05-03 20:25 | 47.38933 | -103.04319 | 39825 ft | 489 kts | 238° |
| 2026-05-03 20:26 | 47.34828 | -103.12333 | 39827 ft | 490 kts | 238° |
| 2026-05-03 20:26 | 47.30709 | -103.20344 | 39825 ft | 491 kts | 238° |
| 2026-05-03 20:27 | 47.26574 | -103.28364 | 39834 ft | 491 kts | 238° |
| 2026-05-03 20:27 | 47.22434 | -103.36371 | 39837 ft | 492 kts | 238° |
| 2026-05-03 20:28 | 47.18280 | -103.44382 | 39830 ft | 492 kts | 238° |
| 2026-05-03 20:28 | 47.14146 | -103.52332 | 39834 ft | 493 kts | 238° |
| 2026-05-03 20:29 | 47.09976 | -103.60326 | 39843 ft | 493 kts | 237° |
| 2026-05-03 20:29 | 47.06506 | -103.66960 | 39849 ft | 493 kts | 237° |
| 2026-05-03 20:30 | 47.02327 | -103.74932 | 39850 ft | 493 kts | 237° |
| 2026-05-03 20:30 | 46.98137 | -103.82900 | 39859 ft | 493 kts | 237° |
| 2026-05-03 20:31 | 46.93943 | -103.90852 | 39863 ft | 494 kts | 237° |
| 2026-05-03 20:31 | 46.89736 | -103.98808 | 39867 ft | 494 kts | 237° |
| 2026-05-03 20:32 | 46.85527 | -104.06744 | 39866 ft | 494 kts | 237° |
| 2026-05-03 20:32 | 46.81305 | -104.14680 | 39869 ft | 494 kts | 237° |
| 2026-05-03 20:33 | 46.77081 | -104.22598 | 39876 ft | 494 kts | 237° |
| 2026-05-03 20:33 | 46.72848 | -104.30511 | 39882 ft | 495 kts | 237° |
| 2026-05-03 20:34 | 46.68608 | -104.38416 | 39882 ft | 495 kts | 236° |
| 2026-05-03 20:34 | 46.64357 | -104.46315 | 39894 ft | 495 kts | 236° |
| 2026-05-03 20:35 | 46.60103 | -104.54198 | 39884 ft | 496 kts | 236° |
| 2026-05-03 20:35 | 46.55835 | -104.62087 | 39885 ft | 496 kts | 236° |
| 2026-05-03 20:36 | 46.51592 | -104.69906 | 39884 ft | 496 kts | 236° |
| 2026-05-03 20:36 | 46.47318 | -104.77761 | 39884 ft | 496 kts | 236° |
| 2026-05-03 20:37 | 46.43037 | -104.85606 | 39886 ft | 495 kts | 236° |
| 2026-05-03 20:37 | 46.38753 | -104.93434 | 39884 ft | 495 kts | 236° |
| 2026-05-03 20:38 | 46.34467 | -105.01246 | 39887 ft | 496 kts | 236° |
| 2026-05-03 20:38 | 46.30201 | -105.08999 | 39886 ft | 496 kts | 235° |
| 2026-05-03 20:39 | 46.25899 | -105.16800 | 39887 ft | 496 kts | 235° |
| 2026-05-03 20:39 | 46.21306 | -105.24260 | 39891 ft | 500 kts | 226° |
| 2026-05-03 20:40 | 46.16097 | -105.30951 | 39885 ft | 501 kts | 225° |
| 2026-05-03 20:40 | 46.10853 | -105.37566 | 39881 ft | 501 kts | 225° |
| 2026-05-03 20:41 | 46.05626 | -105.44205 | 39885 ft | 500 kts | 225° |
| 2026-05-03 20:41 | 46.00419 | -105.50853 | 39883 ft | 500 kts | 225° |
| 2026-05-03 20:42 | 45.95221 | -105.57488 | 39880 ft | 499 kts | 225° |
| 2026-05-03 20:42 | 45.90017 | -105.64112 | 39879 ft | 499 kts | 225° |
| 2026-05-03 20:43 | 45.84858 | -105.70657 | 39869 ft | 498 kts | 225° |
| 2026-05-03 20:43 | 45.79670 | -105.77221 | 39872 ft | 497 kts | 224° |
| 2026-05-03 20:44 | 45.74488 | -105.83760 | 39868 ft | 496 kts | 224° |
| 2026-05-03 20:44 | 45.69311 | -105.90278 | 39883 ft | 495 kts | 224° |
| 2026-05-03 20:45 | 45.64134 | -105.96777 | 39887 ft | 495 kts | 224° |
| 2026-05-03 20:45 | 45.58965 | -106.03250 | 39880 ft | 494 kts | 224° |
| 2026-05-03 20:46 | 45.53797 | -106.09706 | 39886 ft | 493 kts | 224° |
| 2026-05-03 20:46 | 45.48636 | -106.16136 | 39889 ft | 493 kts | 224° |
| 2026-05-03 20:47 | 45.43475 | -106.22550 | 39892 ft | 492 kts | 224° |
| 2026-05-03 20:47 | 45.38341 | -106.28915 | 39891 ft | 492 kts | 224° |
| 2026-05-03 20:48 | 45.33172 | -106.35308 | 39891 ft | 492 kts | 224° |
| 2026-05-03 20:48 | 45.27997 | -106.41692 | 39888 ft | 492 kts | 224° |
| 2026-05-03 20:49 | 45.22822 | -106.48059 | 39896 ft | 492 kts | 224° |
| 2026-05-03 20:49 | 45.17671 | -106.54381 | 39892 ft | 492 kts | 224° |
| 2026-05-03 20:50 | 45.12492 | -106.60721 | 39897 ft | 492 kts | 224° |
| 2026-05-03 20:50 | 45.07309 | -106.67051 | 39900 ft | 492 kts | 224° |
| 2026-05-03 20:51 | 45.02118 | -106.73374 | 39917 ft | 492 kts | 224° |
| 2026-05-03 20:51 | 44.96926 | -106.79683 | 39947 ft | 492 kts | 224° |
| 2026-05-03 20:52 | 44.91736 | -106.85975 | 39958 ft | 492 kts | 224° |
| 2026-05-03 20:52 | 44.86577 | -106.92212 | 39978 ft | 492 kts | 224° |
| 2026-05-03 20:53 | 44.81375 | -106.98487 | 39978 ft | 492 kts | 224° |
| 2026-05-03 20:53 | 44.76178 | -107.04740 | 39981 ft | 491 kts | 223° |
| 2026-05-03 20:54 | 44.70974 | -107.10987 | 39977 ft | 491 kts | 223° |
| 2026-05-03 20:54 | 44.63169 | -107.20327 | 39982 ft | 491 kts | 223° |
| 2026-05-03 20:55 | 44.57996 | -107.26498 | 39982 ft | 491 kts | 223° |
| 2026-05-03 20:55 | 44.52786 | -107.32699 | 39985 ft | 490 kts | 223° |
| 2026-05-03 20:56 | 44.47588 | -107.38869 | 39982 ft | 489 kts | 223° |
| 2026-05-03 20:56 | 44.42394 | -107.45021 | 39979 ft | 489 kts | 223° |
| 2026-05-03 20:57 | 44.37204 | -107.51153 | 39964 ft | 488 kts | 223° |
| 2026-05-03 20:57 | 44.32012 | -107.57273 | 39939 ft | 488 kts | 223° |
| 2026-05-03 20:58 | 44.26822 | -107.63375 | 39937 ft | 487 kts | 223° |
| 2026-05-03 20:58 | 44.21635 | -107.69458 | 39928 ft | 487 kts | 223° |
| 2026-05-03 20:59 | 44.16454 | -107.75522 | 39939 ft | 486 kts | 223° |
| 2026-05-03 20:59 | 44.11308 | -107.81530 | 39933 ft | 486 kts | 223° |
| 2026-05-03 21:00 | 44.06964 | -107.86591 | 39944 ft | 486 kts | 223° |
| 2026-05-03 21:00 | 44.00940 | -107.93593 | 39959 ft | 486 kts | 223° |
| 2026-05-03 21:01 | 43.95744 | -107.99616 | 39959 ft | 487 kts | 223° |
| 2026-05-03 21:01 | 43.90537 | -108.05638 | 39948 ft | 487 kts | 223° |
| 2026-05-03 21:02 | 43.85330 | -108.11646 | 39937 ft | 487 kts | 222° |
| 2026-05-03 21:02 | 43.80125 | -108.17636 | 39957 ft | 486 kts | 222° |
| 2026-05-03 21:03 | 43.74952 | -108.23577 | 39983 ft | 486 kts | 222° |
| 2026-05-03 21:03 | 43.69710 | -108.29582 | 39980 ft | 486 kts | 222° |
| 2026-05-03 21:04 | 43.64538 | -108.35494 | 39989 ft | 485 kts | 222° |
| 2026-05-03 21:04 | 43.59329 | -108.41435 | 39978 ft | 485 kts | 222° |
| 2026-05-03 21:05 | 43.54124 | -108.47357 | 39954 ft | 485 kts | 222° |
| 2026-05-03 21:05 | 43.48920 | -108.53264 | 39937 ft | 484 kts | 222° |
| 2026-05-03 21:06 | 43.43754 | -108.59115 | 39905 ft | 484 kts | 222° |
| 2026-05-03 21:06 | 43.38552 | -108.64993 | 39886 ft | 483 kts | 222° |
| 2026-05-03 21:07 | 43.33356 | -108.70850 | 39887 ft | 482 kts | 222° |
| 2026-05-03 21:07 | 43.28168 | -108.76685 | 39881 ft | 482 kts | 221° |
| 2026-05-03 21:08 | 43.22972 | -108.82516 | 39882 ft | 482 kts | 221° |
| 2026-05-03 21:08 | 43.17777 | -108.88333 | 39872 ft | 482 kts | 221° |
| 2026-05-03 21:09 | 43.12614 | -108.94100 | 39878 ft | 482 kts | 221° |
| 2026-05-03 21:09 | 43.07418 | -108.99892 | 39896 ft | 482 kts | 221° |
| 2026-05-03 21:10 | 43.02209 | -109.05684 | 39912 ft | 481 kts | 221° |
| 2026-05-03 21:10 | 42.97014 | -109.11449 | 39920 ft | 481 kts | 221° |
| 2026-05-03 21:11 | 42.91807 | -109.17213 | 39926 ft | 481 kts | 221° |
| 2026-05-03 21:11 | 42.86616 | -109.22946 | 39931 ft | 480 kts | 221° |
| 2026-05-03 21:12 | 42.81458 | -109.28633 | 39937 ft | 479 kts | 221° |
| 2026-05-03 21:12 | 42.76271 | -109.34338 | 39934 ft | 479 kts | 221° |
| 2026-05-03 21:13 | 42.71086 | -109.40027 | 39956 ft | 479 kts | 222° |
| 2026-05-03 21:13 | 42.65897 | -109.45708 | 39965 ft | 479 kts | 221° |
| 2026-05-03 21:14 | 42.60708 | -109.51377 | 39962 ft | 478 kts | 221° |
| 2026-05-03 21:14 | 42.55517 | -109.57034 | 39952 ft | 478 kts | 221° |
| 2026-05-03 21:15 | 42.50340 | -109.62666 | 39935 ft | 477 kts | 221° |
| 2026-05-03 21:15 | 42.45166 | -109.68281 | 39922 ft | 476 kts | 221° |
| 2026-05-03 21:16 | 42.40021 | -109.73852 | 39926 ft | 476 kts | 221° |
| 2026-05-03 21:16 | 42.34843 | -109.79448 | 39930 ft | 476 kts | 221° |
| 2026-05-03 21:17 | 42.30546 | -109.84082 | 39923 ft | 475 kts | 221° |
| 2026-05-03 21:17 | 42.24507 | -109.90580 | 39908 ft | 474 kts | 221° |
| 2026-05-03 21:18 | 42.19345 | -109.96122 | 39908 ft | 474 kts | 221° |
| 2026-05-03 21:18 | 42.14182 | -110.01654 | 39907 ft | 473 kts | 221° |
| 2026-05-03 21:19 | 42.09028 | -110.07163 | 39909 ft | 473 kts | 221° |
| 2026-05-03 21:19 | 42.03899 | -110.12635 | 39909 ft | 472 kts | 221° |
| 2026-05-03 21:20 | 41.98747 | -110.18118 | 39940 ft | 472 kts | 221° |
| 2026-05-03 21:20 | 41.93594 | -110.23592 | 39981 ft | 472 kts | 221° |
| 2026-05-03 21:21 | 41.89314 | -110.28129 | 40023 ft | 472 kts | 221° |
| 2026-05-03 21:21 | 41.84165 | -110.33577 | 40056 ft | 471 kts | 221° |
| 2026-05-03 21:22 | 41.79015 | -110.39015 | 40088 ft | 471 kts | 221° |
| 2026-05-03 21:22 | 41.73852 | -110.44455 | 40102 ft | 471 kts | 221° |
| 2026-05-03 21:23 | 41.68694 | -110.49878 | 40084 ft | 471 kts | 220° |
| 2026-05-03 21:23 | 41.63565 | -110.55260 | 40046 ft | 471 kts | 220° |
| 2026-05-03 21:24 | 41.58402 | -110.60666 | 40002 ft | 471 kts | 220° |
| 2026-05-03 21:24 | 41.53232 | -110.66068 | 40016 ft | 471 kts | 220° |
| 2026-05-03 21:25 | 41.48066 | -110.71454 | 40007 ft | 471 kts | 220° |
| 2026-05-03 21:25 | 41.42898 | -110.76831 | 39997 ft | 471 kts | 220° |
| 2026-05-03 21:26 | 41.37762 | -110.82165 | 40044 ft | 471 kts | 220° |
| 2026-05-03 21:26 | 41.32589 | -110.87525 | 40085 ft | 471 kts | 220° |
| 2026-05-03 21:27 | 41.27413 | -110.92878 | 40107 ft | 471 kts | 220° |
| 2026-05-03 21:27 | 41.22236 | -110.98219 | 40111 ft | 471 kts | 220° |
| 2026-05-03 21:28 | 41.17062 | -111.03547 | 40099 ft | 471 kts | 220° |
| 2026-05-03 21:28 | 41.11882 | -111.08872 | 40062 ft | 471 kts | 220° |
| 2026-05-03 21:29 | 41.06702 | -111.14184 | 40031 ft | 470 kts | 220° |
| 2026-05-03 21:29 | 41.01549 | -111.19458 | 39988 ft | 470 kts | 220° |
| 2026-05-03 21:30 | 40.96363 | -111.24755 | 39951 ft | 470 kts | 220° |
| 2026-05-03 21:30 | 40.91182 | -111.30038 | 39941 ft | 470 kts | 220° |
| 2026-05-03 21:31 | 40.85994 | -111.35314 | 39943 ft | 470 kts | 220° |
| 2026-05-03 21:31 | 40.80806 | -111.40582 | 39948 ft | 470 kts | 220° |
| 2026-05-03 21:32 | 40.75612 | -111.45844 | 39966 ft | 470 kts | 220° |
| 2026-05-03 21:32 | 40.70419 | -111.51097 | 39974 ft | 470 kts | 220° |
| 2026-05-03 21:33 | 40.65264 | -111.56298 | 39987 ft | 470 kts | 220° |
| 2026-05-03 21:33 | 40.60072 | -111.61526 | 39993 ft | 470 kts | 219° |
| 2026-05-03 21:34 | 40.54876 | -111.66749 | 39984 ft | 470 kts | 219° |
| 2026-05-03 21:34 | 40.49668 | -111.71975 | 39971 ft | 470 kts | 219° |
| 2026-05-03 21:35 | 40.44462 | -111.77186 | 39953 ft | 471 kts | 219° |
| 2026-05-03 21:35 | 40.39253 | -111.82391 | 39968 ft | 470 kts | 219° |
| 2026-05-03 21:36 | 40.34040 | -111.87592 | 39977 ft | 470 kts | 219° |
| 2026-05-03 21:36 | 40.28790 | -111.92689 | 39977 ft | 470 kts | 216° |
| 2026-05-03 21:37 | 40.23025 | -111.96796 | 39973 ft | 474 kts | 207° |
| 2026-05-03 21:37 | 40.17017 | -112.00206 | 39960 ft | 474 kts | 206° |
| 2026-05-03 21:38 | 40.10967 | -112.03622 | 39938 ft | 473 kts | 206° |
| 2026-05-03 21:38 | 40.04941 | -112.07054 | 39916 ft | 472 kts | 207° |
| 2026-05-03 21:39 | 39.98934 | -112.10489 | 39903 ft | 470 kts | 207° |
| 2026-05-03 21:39 | 39.92946 | -112.13911 | 39899 ft | 469 kts | 207° |
| 2026-05-03 21:40 | 39.86983 | -112.17313 | 39898 ft | 467 kts | 207° |
| 2026-05-03 21:40 | 39.81026 | -112.20702 | 39895 ft | 466 kts | 207° |
| 2026-05-03 21:41 | 39.75128 | -112.24050 | 39897 ft | 465 kts | 207° |
| 2026-05-03 21:41 | 39.69202 | -112.27409 | 39896 ft | 464 kts | 207° |
| 2026-05-03 21:42 | 39.63279 | -112.30761 | 39913 ft | 464 kts | 207° |
| 2026-05-03 21:42 | 39.57355 | -112.34107 | 39930 ft | 464 kts | 207° |
| 2026-05-03 21:43 | 39.51436 | -112.37443 | 39966 ft | 464 kts | 207° |
| 2026-05-03 21:43 | 39.45512 | -112.40775 | 39985 ft | 464 kts | 207° |
| 2026-05-03 21:44 | 39.39577 | -112.44108 | 39992 ft | 464 kts | 207° |
| 2026-05-03 21:44 | 39.33652 | -112.47429 | 39984 ft | 464 kts | 207° |
| 2026-05-03 21:45 | 39.27724 | -112.50745 | 39967 ft | 464 kts | 207° |
| 2026-05-03 21:45 | 39.21840 | -112.54031 | 39945 ft | 463 kts | 207° |
| 2026-05-03 21:46 | 39.15924 | -112.57328 | 39925 ft | 462 kts | 207° |
| 2026-05-03 21:46 | 39.10018 | -112.60614 | 39932 ft | 462 kts | 207° |
| 2026-05-03 21:47 | 39.04124 | -112.63887 | 39931 ft | 461 kts | 207° |
| 2026-05-03 21:47 | 38.98237 | -112.67151 | 39919 ft | 460 kts | 207° |
| 2026-05-03 21:48 | 38.92362 | -112.70402 | 39904 ft | 459 kts | 207° |
| 2026-05-03 21:48 | 38.86499 | -112.73640 | 39890 ft | 458 kts | 207° |
| 2026-05-03 21:49 | 38.80635 | -112.76873 | 39861 ft | 458 kts | 207° |
| 2026-05-03 21:49 | 38.74784 | -112.80094 | 39858 ft | 457 kts | 207° |
| 2026-05-03 21:50 | 38.68977 | -112.83284 | 39887 ft | 456 kts | 208° |
| 2026-05-03 21:50 | 38.63144 | -112.86484 | 39915 ft | 456 kts | 208° |
| 2026-05-03 21:51 | 38.57314 | -112.89676 | 39946 ft | 455 kts | 208° |
| 2026-05-03 21:51 | 38.51497 | -112.92854 | 39976 ft | 454 kts | 208° |
| 2026-05-03 21:52 | 38.45691 | -112.96022 | 39991 ft | 453 kts | 208° |
| 2026-05-03 21:52 | 38.39887 | -112.99184 | 39988 ft | 453 kts | 208° |
| 2026-05-03 21:53 | 38.34094 | -113.02300 | 39992 ft | 452 kts | 207° |
| 2026-05-03 21:53 | 38.28199 | -113.05125 | 39954 ft | 453 kts | 205° |
| 2026-05-03 21:54 | 38.22289 | -113.07861 | 39919 ft | 451 kts | 206° |
| 2026-05-03 21:54 | 38.16403 | -113.10619 | 39874 ft | 450 kts | 206° |
| 2026-05-03 21:55 | 38.10535 | -113.13394 | 39844 ft | 450 kts | 206° |
| 2026-05-03 21:55 | 38.04700 | -113.16158 | 39818 ft | 451 kts | 206° |
| 2026-05-03 21:56 | 37.98812 | -113.18942 | 39642 ft | 451 kts | 206° |
| 2026-05-03 21:56 | 37.95877 | -113.20325 | 39416 ft | 448 kts | 207° |
| 2026-05-03 21:56 | 37.92962 | -113.21697 | 39106 ft | 446 kts | 207° |
| 2026-05-03 21:57 | 37.90054 | -113.23066 | 38687 ft | 445 kts | 207° |
| 2026-05-03 21:57 | 37.87155 | -113.24431 | 38169 ft | 443 kts | 207° |
| 2026-05-03 21:57 | 37.84269 | -113.25788 | 37633 ft | 441 kts | 207° |
| 2026-05-03 21:57 | 37.81403 | -113.27134 | 37124 ft | 438 kts | 207° |
| 2026-05-03 21:58 | 37.78547 | -113.28475 | 36607 ft | 439 kts | 206° |
| 2026-05-03 21:58 | 37.75701 | -113.29814 | 36117 ft | 444 kts | 206° |
| 2026-05-03 21:58 | 37.72793 | -113.31181 | 35632 ft | 447 kts | 206° |
| 2026-05-03 21:58 | 37.69875 | -113.32548 | 35135 ft | 446 kts | 206° |
| 2026-05-03 21:59 | 37.66961 | -113.33909 | 34647 ft | 445 kts | 206° |
| 2026-05-03 21:59 | 37.64054 | -113.35266 | 34164 ft | 444 kts | 206° |
| 2026-05-03 21:59 | 37.61165 | -113.36613 | 33647 ft | 443 kts | 206° |
| 2026-05-03 21:59 | 37.58254 | -113.37974 | 33111 ft | 449 kts | 205° |
| 2026-05-03 22:00 | 37.55321 | -113.39344 | 32579 ft | 449 kts | 205° |
| 2026-05-03 22:00 | 37.52405 | -113.40701 | 32101 ft | 445 kts | 205° |
| 2026-05-03 22:00 | 37.49531 | -113.42038 | 31879 ft | 445 kts | 205° |
| 2026-05-03 22:00 | 37.46630 | -113.43386 | 31848 ft | 442 kts | 205° |
| 2026-05-03 22:01 | 37.40867 | -113.46063 | 31829 ft | 441 kts | 205° |
| 2026-05-03 22:01 | 37.35106 | -113.48736 | 31805 ft | 440 kts | 205° |
| 2026-05-03 22:02 | 37.29363 | -113.51396 | 31819 ft | 440 kts | 205° |
| 2026-05-03 22:02 | 37.23632 | -113.54085 | 31827 ft | 439 kts | 207° |
| 2026-05-03 22:03 | 37.18101 | -113.57253 | 31832 ft | 436 kts | 210° |
| 2026-05-03 22:03 | 37.12632 | -113.60547 | 31831 ft | 436 kts | 210° |
| 2026-05-03 22:04 | 37.07140 | -113.63779 | 31830 ft | 435 kts | 210° |
| 2026-05-03 22:04 | 37.01654 | -113.66966 | 31828 ft | 434 kts | 210° |
| 2026-05-03 22:05 | 36.98943 | -113.68535 | 31648 ft | 423 kts | 210° |
| 2026-05-03 22:05 | 36.96308 | -113.70059 | 31276 ft | 410 kts | 210° |
| 2026-05-03 22:05 | 36.93768 | -113.71531 | 31065 ft | 395 kts | 210° |
| 2026-05-03 22:05 | 36.91350 | -113.72937 | 30849 ft | 382 kts | 210° |
| 2026-05-03 22:06 | 36.88976 | -113.74320 | 30512 ft | 373 kts | 210° |
| 2026-05-03 22:06 | 36.86639 | -113.75687 | 30066 ft | 368 kts | 210° |
| 2026-05-03 22:06 | 36.84333 | -113.77036 | 29474 ft | 365 kts | 210° |
| 2026-05-03 22:06 | 36.82038 | -113.78379 | 28785 ft | 364 kts | 209° |
| 2026-05-03 22:07 | 36.79742 | -113.79720 | 28108 ft | 363 kts | 209° |
| 2026-05-03 22:07 | 36.77453 | -113.81053 | 27514 ft | 361 kts | 209° |
| 2026-05-03 22:07 | 36.75179 | -113.82375 | 26955 ft | 359 kts | 208° |
| 2026-05-03 22:07 | 36.72917 | -113.83690 | 26414 ft | 358 kts | 208° |
| 2026-05-03 22:08 | 36.70659 | -113.85002 | 25829 ft | 357 kts | 208° |
| 2026-05-03 22:08 | 36.68408 | -113.86310 | 25324 ft | 356 kts | 207° |
| 2026-05-03 22:08 | 36.66165 | -113.87611 | 24854 ft | 355 kts | 207° |
| 2026-05-03 22:08 | 36.63935 | -113.88903 | 24392 ft | 353 kts | 207° |
| 2026-05-03 22:09 | 36.61736 | -113.90177 | 23927 ft | 353 kts | 207° |
| 2026-05-03 22:09 | 36.59563 | -113.91541 | 23442 ft | 349 kts | 214° |
| 2026-05-03 22:09 | 36.57733 | -113.93526 | 22841 ft | 350 kts | 229° |
| 2026-05-03 22:10 | 36.54776 | -113.98298 | 21935 ft | 346 kts | 231° |
| 2026-05-03 22:10 | 36.53334 | -114.00682 | 21508 ft | 344 kts | 231° |
| 2026-05-03 22:10 | 36.51889 | -114.03052 | 21091 ft | 343 kts | 231° |
| 2026-05-03 22:10 | 36.50933 | -114.04610 | 20807 ft | 342 kts | 231° |
| 2026-05-03 22:11 | 36.49489 | -114.06952 | 20396 ft | 341 kts | 230° |
| 2026-05-03 22:11 | 36.48040 | -114.09289 | 19996 ft | 340 kts | 230° |
| 2026-05-03 22:11 | 36.46596 | -114.11616 | 19606 ft | 339 kts | 230° |
| 2026-05-03 22:11 | 36.45158 | -114.13928 | 19244 ft | 337 kts | 230° |
| 2026-05-03 22:12 | 36.43725 | -114.16231 | 18860 ft | 337 kts | 230° |
| 2026-05-03 22:12 | 36.42294 | -114.18528 | 18476 ft | 336 kts | 230° |
| 2026-05-03 22:12 | 36.40864 | -114.20821 | 18110 ft | 335 kts | 230° |
| 2026-05-03 22:12 | 36.39439 | -114.23104 | 17677 ft | 334 kts | 229° |
| 2026-05-03 22:13 | 36.38024 | -114.25341 | 17286 ft | 332 kts | 229° |
| 2026-05-03 22:13 | 36.36595 | -114.27581 | 16898 ft | 331 kts | 229° |
| 2026-05-03 22:13 | 36.35167 | -114.29817 | 16510 ft | 329 kts | 228° |
| 2026-05-03 22:13 | 36.33744 | -114.32043 | 16084 ft | 330 kts | 229° |
| 2026-05-03 22:14 | 36.32322 | -114.34269 | 15704 ft | 328 kts | 228° |
| 2026-05-03 22:14 | 36.30911 | -114.36478 | 15346 ft | 326 kts | 228° |
| 2026-05-03 22:14 | 36.29508 | -114.38677 | 15013 ft | 324 kts | 228° |
| 2026-05-03 22:14 | 36.28121 | -114.40850 | 14574 ft | 316 kts | 228° |
| 2026-05-03 22:15 | 36.26760 | -114.42977 | 14034 ft | 314 kts | 228° |
| 2026-05-03 22:15 | 36.25394 | -114.45108 | 13526 ft | 318 kts | 228° |
| 2026-05-03 22:15 | 36.24006 | -114.47246 | 12943 ft | 315 kts | 227° |
| 2026-05-03 22:15 | 36.22650 | -114.49325 | 12232 ft | 306 kts | 227° |
| 2026-05-03 22:16 | 36.21325 | -114.51355 | 11508 ft | 300 kts | 227° |
| 2026-05-03 22:16 | 36.20043 | -114.53319 | 10780 ft | 295 kts | 227° |
| 2026-05-03 22:16 | 36.18781 | -114.55252 | 10450 ft | 279 kts | 227° |
| 2026-05-03 22:16 | 36.17560 | -114.57121 | 10007 ft | 284 kts | 227° |
| 2026-05-03 22:17 | 36.16297 | -114.59049 | 9529 ft | 289 kts | 227° |
| 2026-05-03 22:17 | 36.15043 | -114.60967 | 9308 ft | 283 kts | 227° |
| 2026-05-03 22:17 | 36.13818 | -114.62838 | 9040 ft | 278 kts | 227° |
| 2026-05-03 22:17 | 36.12598 | -114.64701 | 8701 ft | 277 kts | 227° |
| 2026-05-03 22:18 | 36.11396 | -114.66534 | 8522 ft | 270 kts | 227° |
| 2026-05-03 22:18 | 36.10230 | -114.68316 | 8374 ft | 262 kts | 227° |
| 2026-05-03 22:18 | 36.09098 | -114.70039 | 8235 ft | 254 kts | 227° |
| 2026-05-03 22:18 | 36.08009 | -114.71721 | 8106 ft | 245 kts | 231° |
| 2026-05-03 22:19 | 36.07355 | -114.73663 | 7856 ft | 252 kts | 257° |
| 2026-05-03 22:19 | 36.07332 | -114.75781 | 7625 ft | 252 kts | 267° |
| 2026-05-03 22:19 | 36.07375 | -114.77999 | 7336 ft | 251 kts | 266° |
| 2026-05-03 22:19 | 36.07384 | -114.80162 | 7055 ft | 252 kts | 265° |
| 2026-05-03 22:20 | 36.07385 | -114.82312 | 6752 ft | 255 kts | 265° |
| 2026-05-03 22:20 | 36.07385 | -114.84496 | 6475 ft | 253 kts | 265° |
| 2026-05-03 22:20 | 36.07386 | -114.86623 | 6140 ft | 241 kts | 264° |
| 2026-05-03 22:20 | 36.07385 | -114.88653 | 5825 ft | 233 kts | 265° |
| 2026-05-03 22:21 | 36.07381 | -114.90660 | 5529 ft | 232 kts | 265° |
| 2026-05-03 22:21 | 36.07380 | -114.92649 | 5234 ft | 229 kts | 264° |
| 2026-05-03 22:21 | 36.07378 | -114.94619 | 4942 ft | 230 kts | 264° |
| 2026-05-03 22:21 | 36.07375 | -114.96573 | 4631 ft | 231 kts | 265° |
| 2026-05-03 22:22 | 36.07374 | -114.98546 | 4294 ft | 223 kts | 266° |
| 2026-05-03 22:22 | 36.07379 | -115.00345 | 4037 ft | 198 kts | 264° |
| 2026-05-03 22:22 | 36.07376 | -115.01971 | 3769 ft | 183 kts | 265° |
| 2026-05-03 22:22 | 36.07373 | -115.03488 | 3517 ft | 170 kts | 265° |
| 2026-05-03 22:23 | 36.07371 | -115.04976 | 3304 ft | 172 kts | 264° |
| 2026-05-03 22:23 | 36.07370 | -115.06414 | 3111 ft | 162 kts | 262° |
| 2026-05-03 22:23 | 36.07367 | -115.07759 | 2904 ft | 158 kts | 265° |
| 2026-05-03 22:23 | 36.07362 | -115.09093 | 2731 ft | 152 kts | 266° |
| 2026-05-03 22:24 | 36.07364 | -115.10442 | 2533 ft | 162 kts | 269° |
| 2026-05-03 22:24 | 36.07367 | -115.11843 | 2330 ft | 161 kts | 267° |
| 2026-05-03 22:24 | 36.07369 | -115.13189 | 2198 ft | 147 kts | 266° |
| 2026-05-03 22:24 | 36.07365 | -115.14296 | 2196 ft | 107 kts | 270° |
| 2026-05-03 22:25 | 36.07366 | -115.14984 | 2193 ft | 54 kts | 270° |
| 2026-05-03 22:25 | 36.07412 | -115.15378 | 2194 ft | 34 kts | 292° |
| 2026-05-03 22:25 | 36.07499 | -115.15571 | 2195 ft | 21 kts | 306° |
| 2026-05-03 22:25 | 36.07603 | -115.15702 | 2194 ft | 21 kts | 315° |
| 2026-05-03 22:26 | 36.07714 | -115.15819 | 2197 ft | 21 kts | 336° |
| 2026-05-03 22:26 | 36.07805 | -115.15778 | 2196 ft | 7 kts | 83° |
| 2026-05-03 22:26 | 36.07805 | -115.15689 | 2192 ft | 22 kts | 90° |
| 2026-05-03 22:26 | 36.07804 | -115.15444 | 2193 ft | 30 kts | 90° |
| 2026-05-03 22:27 | 36.07805 | -115.15239 | 2193 ft | 20 kts | 90° |
| 2026-05-03 22:27 | 36.07863 | -115.15090 | 2195 ft | 20 kts | 64° |
| 2026-05-03 22:27 | 36.07866 | -115.14922 | 2193 ft | 20 kts | 95° |
| 2026-05-03 22:27 | 36.07854 | -115.14755 | 2193 ft | 20 kts | 95° |
| 2026-05-03 22:28 | 36.07845 | -115.14585 | 2194 ft | 20 kts | 94° |
| 2026-05-03 22:28 | 36.07834 | -115.14416 | 2194 ft | 20 kts | 96° |
| 2026-05-03 22:28 | 36.07827 | -115.14215 | 2195 ft | 24 kts | 90° |
| 2026-05-03 22:28 | 36.07829 | -115.14008 | 2194 ft | 24 kts | 89° |
| 2026-05-03 22:29 | 36.07830 | -115.13800 | 2193 ft | 24 kts | 91° |
| 2026-05-03 22:29 | 36.07831 | -115.13593 | 2193 ft | 23 kts | 89° |
| 2026-05-03 22:29 | 36.07828 | -115.13398 | 2197 ft | 16 kts | 91° |
| 2026-05-03 22:29 | 36.07876 | -115.13293 | 2198 ft | 16 kts | 6° |
| 2026-05-03 22:30 | 36.07990 | -115.13293 | 2195 ft | 16 kts | 0° |
| 2026-05-03 22:30 | 36.08108 | -115.13292 | 2195 ft | 20 kts | 0° |
| 2026-05-03 22:30 | 36.08228 | -115.13291 | 2193 ft | 13 kts | 0° |
| 2026-05-03 22:30 | 36.08344 | -115.13308 | 2195 ft | 19 kts | 331° |
| 2026-05-03 22:31 | 36.08416 | -115.13366 | 2195 ft | 8 kts | 353° |
| 2026-05-03 22:31 | 36.08468 | -115.13365 | 2195 ft | 6 kts | 3° |
| 2026-05-03 22:31 | 36.08512 | -115.13364 | 2194 ft | 6 kts | 0° |
| 2026-05-03 22:31 | 36.08526 | -115.13364 | 2194 ft | 1 kts | 0° |
| 2026-05-03 22:32 | 36.08532 | -115.13364 | 2193 ft | 2 kts | 0° |
| 2026-05-03 22:32 | 36.08535 | -115.13364 | 2196 ft | 0 kts | 0° |